sensor_id;sensor_type;location;lat;lon;timestamp;pressure;altitude;pressure_sealevel;temperature;humidity
10480;BME280;12789;42.610;23.040;2022-10-16T00:01:07;94241.66;;;5.72;100.00
10480;BME280;12789;42.610;23.040;2022-10-16T00:03:35;94277.44;;;5.75;100.00
10480;BME280;12789;42.610;23.040;2022-10-16T00:06:02;94269.22;;;5.70;100.00
10480;BME280;12789;42.610;23.040;2022-10-16T00:08:29;94280.22;;;5.72;100.00
10480;BME280;12789;42.610;23.040;2022-10-16T00:11:03;94284.56;;;5.72;100.00
10480;BME280;12789;42.610;23.040;2022-10-16T00:13:30;94284.56;;;5.72;100.00
10480;BME280;12789;42.610;23.040;2022-10-16T00:15:59;94281.34;;;5.68;100.00
10480;BME280;12789;42.610;23.040;2022-10-16T00:18:26;94272.66;;;5.57;100.00
10480;BME280;12789;42.610;23.040;2022-10-16T00:20:54;94297.56;;;5.56;100.00
10480;BME280;12789;42.610;23.040;2022-10-16T00:23:22;94292.59;;;5.41;100.00
10480;BME280;12789;42.610;23.040;2022-10-16T00:25:55;94286.31;;;5.45;100.00
10480;BME280;12789;42.610;23.040;2022-10-16T00:28:24;94302.66;;;5.44;100.00
10480;BME280;12789;42.610;23.040;2022-10-16T00:30:51;94283.09;;;5.41;100.00
10480;BME280;12789;42.610;23.040;2022-10-16T00:33:19;94290.50;;;5.33;100.00
10480;BME280;12789;42.610;23.040;2022-10-16T00:35:46;94288.97;;;5.43;100.00
10480;BME280;12789;42.610;23.040;2022-10-16T00:38:13;94294.47;;;5.51;100.00
10480;BME280;12789;42.610;23.040;2022-10-16T00:40:40;94295.88;;;5.43;100.00
10480;BME280;12789;42.610;23.040;2022-10-16T00:43:12;94281.38;;;5.42;100.00
10480;BME280;12789;42.610;23.040;2022-10-16T00:45:42;94304.41;;;5.43;100.00
10480;BME280;12789;42.610;23.040;2022-10-16T00:48:11;94293.84;;;5.48;100.00
10480;BME280;12789;42.610;23.040;2022-10-16T00:50:40;94291.53;;;5.43;100.00
10480;BME280;12789;42.610;23.040;2022-10-16T00:53:10;94297.88;;;5.25;100.00
10480;BME280;12789;42.610;23.040;2022-10-16T00:55:37;94298.78;;;5.24;100.00
10480;BME280;12789;42.610;23.040;2022-10-16T00:58:04;94286.88;;;5.23;100.00
10480;BME280;12789;42.610;23.040;2022-10-16T01:00:31;94291.66;;;5.15;100.00
10480;BME280;12789;42.610;23.040;2022-10-16T01:03:01;94298.06;;;5.22;100.00
10480;BME280;12789;42.610;23.040;2022-10-16T01:05:33;94299.47;;;5.14;100.00
10480;BME280;12789;42.610;23.040;2022-10-16T01:08:08;94296.81;;;5.15;100.00
10480;BME280;12789;42.610;23.040;2022-10-16T01:10:40;94297.88;;;5.25;100.00
10480;BME280;12789;42.610;23.040;2022-10-16T01:13:15;94299.06;;;5.20;100.00
10480;BME280;12789;42.610;23.040;2022-10-16T01:15:48;94302.28;;;5.23;100.00
10480;BME280;12789;42.610;23.040;2022-10-16T01:18:24;94299.47;;;5.14;100.00
10480;BME280;12789;42.610;23.040;2022-10-16T01:20:56;94292.22;;;5.06;100.00
10480;BME280;12789;42.610;23.040;2022-10-16T01:23:36;94297.72;;;5.14;100.00
10480;BME280;12789;42.610;23.040;2022-10-16T01:26:31;94277.63;;;4.80;100.00
10480;BME280;12789;42.610;23.040;2022-10-16T01:29:08;94281.72;;;4.97;100.00
10480;BME280;12789;42.610;23.040;2022-10-16T01:31:40;94283.31;;;4.85;100.00
10480;BME280;12789;42.610;23.040;2022-10-16T01:34:13;94280.88;;;4.96;100.00
10480;BME280;12789;42.610;23.040;2022-10-16T01:36:42;94285.63;;;5.02;100.00
10480;BME280;12789;42.610;23.040;2022-10-16T01:39:12;94291.91;;;4.84;100.00
10480;BME280;12789;42.610;23.040;2022-10-16T01:41:43;94280.38;;;4.77;100.00
10480;BME280;12789;42.610;23.040;2022-10-16T01:44:16;94294.38;;;4.86;100.00
10480;BME280;12789;42.610;23.040;2022-10-16T01:46:47;94291.19;;;4.68;100.00
10480;BME280;12789;42.610;23.040;2022-10-16T01:49:17;94306.59;;;4.68;100.00
10480;BME280;12789;42.610;23.040;2022-10-16T01:51:47;94307.16;;;4.73;100.00
10480;BME280;12789;42.610;23.040;2022-10-16T01:54:17;94314.88;;;4.73;100.00
10480;BME280;12789;42.610;23.040;2022-10-16T01:56:45;94309.91;;;4.70;100.00
10480;BME280;12789;42.610;23.040;2022-10-16T01:59:16;94311.28;;;4.76;100.00
10480;BME280;12789;42.610;23.040;2022-10-16T02:01:48;94305.50;;;4.58;100.00
10480;BME280;12789;42.610;23.040;2022-10-16T02:04:20;94314.50;;;4.65;100.00
10480;BME280;12789;42.610;23.040;2022-10-16T02:06:48;94321.84;;;4.57;100.00
10480;BME280;12789;42.610;23.040;2022-10-16T02:09:15;94323.22;;;4.63;100.00
10480;BME280;12789;42.610;23.040;2022-10-16T02:11:42;94331.28;;;4.57;100.00
10480;BME280;12789;42.610;23.040;2022-10-16T02:14:09;94335.47;;;4.44;100.00
10480;BME280;12789;42.610;23.040;2022-10-16T02:16:39;94344.09;;;4.43;100.00
10480;BME280;12789;42.610;23.040;2022-10-16T02:19:07;94337.94;;;4.32;100.00
10480;BME280;12789;42.610;23.040;2022-10-16T02:21:40;94342.19;;;4.46;100.00
10480;BME280;12789;42.610;23.040;2022-10-16T02:24:13;94337.44;;;4.40;100.00
10480;BME280;12789;42.610;23.040;2022-10-16T02:26:49;94336.03;;;4.35;100.00
10480;BME280;12789;42.610;23.040;2022-10-16T02:29:23;94342.44;;;4.42;100.00
10480;BME280;12789;42.610;23.040;2022-10-16T02:31:55;94346.41;;;4.47;100.00
10480;BME280;12789;42.610;23.040;2022-10-16T02:34:25;94320.91;;;4.31;100.00
10480;BME280;12789;42.610;23.040;2022-10-16T02:36:56;94341.53;;;4.43;100.00
10480;BME280;12789;42.610;23.040;2022-10-16T02:39:24;94331.72;;;4.22;100.00
10480;BME280;12789;42.610;23.040;2022-10-16T02:41:52;94347.84;;;4.24;100.00
10480;BME280;12789;42.610;23.040;2022-10-16T02:44:19;94337.69;;;4.22;100.00
10480;BME280;12789;42.610;23.040;2022-10-16T02:46:45;94352.59;;;4.30;100.00
10480;BME280;12789;42.610;23.040;2022-10-16T02:49:14;94346.84;;;4.40;100.00
10480;BME280;12789;42.610;23.040;2022-10-16T02:51:41;94354.25;;;4.31;100.00
10480;BME280;12789;42.610;23.040;2022-10-16T02:54:07;94347.84;;;4.24;100.00
10480;BME280;12789;42.610;23.040;2022-10-16T02:56:34;94352.22;;;4.22;100.00
10480;BME280;12789;42.610;23.040;2022-10-16T02:59:01;94343.34;;;4.13;100.00
10480;BME280;12789;42.610;23.040;2022-10-16T03:01:28;94346.56;;;4.17;100.00
10480;BME280;12789;42.610;23.040;2022-10-16T03:03:55;94350.94;;;4.15;100.00
10480;BME280;12789;42.610;23.040;2022-10-16T03:06:23;94344.72;;;4.19;100.00
10480;BME280;12789;42.610;23.040;2022-10-16T03:08:50;94329.69;;;3.99;100.00
10480;BME280;12789;42.610;23.040;2022-10-16T03:11:17;94344.88;;;4.02;100.00
10480;BME280;12789;42.610;23.040;2022-10-16T03:13:44;94345.97;;;3.98;100.00
10480;BME280;12789;42.610;23.040;2022-10-16T03:16:11;94340.75;;;3.99;100.00
10480;BME280;12789;42.610;23.040;2022-10-16T03:18:38;94338.34;;;3.82;100.00
10480;BME280;12789;42.610;23.040;2022-10-16T03:21:05;94347.41;;;3.88;100.00
10480;BME280;12789;42.610;23.040;2022-10-16T03:23:33;94346.66;;;3.86;100.00
10480;BME280;12789;42.610;23.040;2022-10-16T03:26:00;94349.16;;;3.87;100.00
10480;BME280;12789;42.610;23.040;2022-10-16T03:28:27;94360.03;;;3.91;100.00
10480;BME280;12789;42.610;23.040;2022-10-16T03:30:54;94360.94;;;3.90;100.00
10480;BME280;12789;42.610;23.040;2022-10-16T03:33:21;94360.31;;;3.86;100.00
10480;BME280;12789;42.610;23.040;2022-10-16T03:35:51;94353.78;;;3.81;100.00
10480;BME280;12789;42.610;23.040;2022-10-16T03:38:19;94355.06;;;3.74;100.00
10480;BME280;12789;42.610;23.040;2022-10-16T03:40:49;94355.94;;;3.88;100.00
10480;BME280;12789;42.610;23.040;2022-10-16T03:43:16;94346.28;;;3.78;100.00
10480;BME280;12789;42.610;23.040;2022-10-16T03:45:43;94354.53;;;3.83;100.00
10480;BME280;12789;42.610;23.040;2022-10-16T03:48:10;94337.47;;;3.68;100.00
10480;BME280;12789;42.610;23.040;2022-10-16T03:50:37;94356.81;;;3.73;100.00
10480;BME280;12789;42.610;23.040;2022-10-16T03:53:04;94356.00;;;3.87;100.00
10480;BME280;12789;42.610;23.040;2022-10-16T03:55:31;94356.00;;;3.87;100.00
10480;BME280;12789;42.610;23.040;2022-10-16T03:58:00;94362.16;;;3.84;100.00
10480;BME280;12789;42.610;23.040;2022-10-16T04:00:27;94362.22;;;3.83;100.00
10480;BME280;12789;42.610;23.040;2022-10-16T04:02:54;94349.75;;;3.77;100.00
10480;BME280;12789;42.610;23.040;2022-10-16T04:05:21;94346.94;;;3.81;100.00
10480;BME280;12789;42.610;23.040;2022-10-16T04:07:47;94353.53;;;3.85;100.00
10480;BME280;12789;42.610;23.040;2022-10-16T04:10:14;94356.72;;;3.75;100.00
10480;BME280;12789;42.610;23.040;2022-10-16T04:12:41;94350.41;;;3.80;100.00
10480;BME280;12789;42.610;23.040;2022-10-16T04:15:10;94344.88;;;3.72;100.00
10480;BME280;12789;42.610;23.040;2022-10-16T04:17:37;94348.28;;;3.73;100.00
10480;BME280;12789;42.610;23.040;2022-10-16T04:20:05;94346.81;;;3.69;100.00
10480;BME280;12789;42.610;23.040;2022-10-16T04:22:32;94342.97;;;3.76;100.00
10480;BME280;12789;42.610;23.040;2022-10-16T04:24:59;94349.84;;;3.75;100.00
10480;BME280;12789;42.610;23.040;2022-10-16T04:27:26;94354.88;;;3.77;100.00
10480;BME280;12789;42.610;23.040;2022-10-16T04:29:53;94341.38;;;3.59;100.00
10480;BME280;12789;42.610;23.040;2022-10-16T04:32:22;94345.50;;;3.62;100.00
10480;BME280;12789;42.610;23.040;2022-10-16T04:34:49;94350.47;;;3.65;100.00
10480;BME280;12789;42.610;23.040;2022-10-16T04:37:15;94368.75;;;3.59;100.00
10480;BME280;12789;42.610;23.040;2022-10-16T04:39:43;94365.09;;;3.63;100.00
10480;BME280;12789;42.610;23.040;2022-10-16T04:42:10;94353.47;;;3.42;100.00
10480;BME280;12789;42.610;23.040;2022-10-16T04:44:37;94364.03;;;3.51;100.00
10480;BME280;12789;42.610;23.040;2022-10-16T04:47:04;94376.59;;;3.56;100.00
10480;BME280;12789;42.610;23.040;2022-10-16T04:49:32;94376.44;;;3.59;100.00
10480;BME280;12789;42.610;23.040;2022-10-16T04:51:59;94368.50;;;3.48;100.00
10480;BME280;12789;42.610;23.040;2022-10-16T04:54:26;94383.78;;;3.65;100.00
10480;BME280;12789;42.610;23.040;2022-10-16T04:56:53;94383.44;;;3.71;100.00
10480;BME280;12789;42.610;23.040;2022-10-16T04:59:20;94361.72;;;3.47;100.00
10480;BME280;12789;42.610;23.040;2022-10-16T05:01:48;94383.44;;;3.71;100.00
10480;BME280;12789;42.610;23.040;2022-10-16T05:04:15;94387.50;;;3.59;100.00
10480;BME280;12789;42.610;23.040;2022-10-16T05:06:44;94382.03;;;3.50;100.00
10480;BME280;12789;42.610;23.040;2022-10-16T05:09:11;94384.41;;;3.68;100.00
10480;BME280;12789;42.610;23.040;2022-10-16T05:11:37;94389.63;;;3.67;100.00
10480;BME280;12789;42.610;23.040;2022-10-16T05:14:04;94388.69;;;3.54;100.00
10480;BME280;12789;42.610;23.040;2022-10-16T05:16:31;94396.25;;;3.55;100.00
10480;BME280;12789;42.610;23.040;2022-10-16T05:18:58;94395.91;;;3.61;100.00
10480;BME280;12789;42.610;23.040;2022-10-16T05:21:25;94393.69;;;3.71;100.00
10480;BME280;12789;42.610;23.040;2022-10-16T05:23:54;94389.28;;;3.73;100.00
10480;BME280;12789;42.610;23.040;2022-10-16T05:26:22;94395.81;;;3.78;100.00
10480;BME280;12789;42.610;23.040;2022-10-16T05:28:49;94385.75;;;3.75;100.00
10480;BME280;12789;42.610;23.040;2022-10-16T05:31:16;94400.84;;;3.80;100.00
10480;BME280;12789;42.610;23.040;2022-10-16T05:33:43;94380.13;;;3.69;100.00
10480;BME280;12789;42.610;23.040;2022-10-16T05:36:11;94399.03;;;3.82;100.00
10480;BME280;12789;42.610;23.040;2022-10-16T05:38:38;94395.16;;;3.75;100.00
10480;BME280;12789;42.610;23.040;2022-10-16T05:41:06;94391.59;;;3.77;100.00
10480;BME280;12789;42.610;23.040;2022-10-16T05:43:35;94403.78;;;3.88;100.00
10480;BME280;12789;42.610;23.040;2022-10-16T05:46:07;94413.75;;;3.78;100.00
10480;BME280;12789;42.610;23.040;2022-10-16T05:48:34;94404.63;;;3.59;100.00
10480;BME280;12789;42.610;23.040;2022-10-16T05:51:03;94414.22;;;3.85;100.00
10480;BME280;12789;42.610;23.040;2022-10-16T05:53:31;94418.16;;;3.61;100.00
10480;BME280;12789;42.610;23.040;2022-10-16T05:55:58;94427.28;;;3.96;100.00
10480;BME280;12789;42.610;23.040;2022-10-16T05:58:31;94430.78;;;3.79;100.00
10480;BME280;12789;42.610;23.040;2022-10-16T06:00:59;94434.63;;;4.31;100.00
10480;BME280;12789;42.610;23.040;2022-10-16T06:03:27;94446.25;;;5.22;100.00
10480;BME280;12789;42.610;23.040;2022-10-16T06:05:54;94446.97;;;4.82;100.00
10480;BME280;12789;42.610;23.040;2022-10-16T06:08:22;94448.81;;;5.36;100.00
10480;BME280;12789;42.610;23.040;2022-10-16T06:11:00;94449.28;;;5.83;100.00
10480;BME280;12789;42.610;23.040;2022-10-16T06:13:28;94469.28;;;5.23;100.00
10480;BME280;12789;42.610;23.040;2022-10-16T06:15:57;94455.16;;;4.88;100.00
10480;BME280;12789;42.610;23.040;2022-10-16T06:18:24;94455.66;;;4.65;100.00
10480;BME280;12789;42.610;23.040;2022-10-16T06:20:51;94457.78;;;4.73;100.00
10480;BME280;12789;42.610;23.040;2022-10-16T06:23:18;94454.78;;;4.80;100.00
10480;BME280;12789;42.610;23.040;2022-10-16T06:25:45;94460.28;;;4.88;100.00
10480;BME280;12789;42.610;23.040;2022-10-16T06:28:13;94465.78;;;4.96;100.00
10480;BME280;12789;42.610;23.040;2022-10-16T06:30:42;94458.94;;;4.97;100.00
10480;BME280;12789;42.610;23.040;2022-10-16T06:33:09;94466.53;;;5.12;100.00
10480;BME280;12789;42.610;23.040;2022-10-16T06:35:36;94464.22;;;5.22;100.00
10480;BME280;12789;42.610;23.040;2022-10-16T06:38:03;94455.41;;;5.26;100.00
10480;BME280;12789;42.610;23.040;2022-10-16T06:40:30;94471.84;;;5.37;100.00
10480;BME280;12789;42.610;23.040;2022-10-16T06:42:57;94466.53;;;5.12;100.00
10480;BME280;12789;42.610;23.040;2022-10-16T06:45:24;94476.19;;;10.70;100.00
10480;BME280;12789;42.610;23.040;2022-10-16T06:47:52;94453.47;;;12.14;100.00
10480;BME280;12789;42.610;23.040;2022-10-16T06:50:19;94451.59;;;12.35;100.00
10480;BME280;12789;42.610;23.040;2022-10-16T06:52:46;94454.69;;;8.85;100.00
10480;BME280;12789;42.610;23.040;2022-10-16T06:55:13;94456.47;;;7.55;100.00
10480;BME280;12789;42.610;23.040;2022-10-16T06:57:41;94454.25;;;7.01;100.00
10480;BME280;12789;42.610;23.040;2022-10-16T07:00:08;94463.97;;;6.85;100.00
10480;BME280;12789;42.610;23.040;2022-10-16T07:02:35;94471.59;;;6.99;100.00
10480;BME280;12789;42.610;23.040;2022-10-16T07:05:04;94474.50;;;8.03;100.00
10480;BME280;12789;42.610;23.040;2022-10-16T07:07:31;94479.97;;;7.63;100.00
10480;BME280;12789;42.610;23.040;2022-10-16T07:09:58;94478.25;;;8.35;100.00
10480;BME280;12789;42.610;23.040;2022-10-16T07:12:25;94497.63;;;8.17;100.00
10480;BME280;12789;42.610;23.040;2022-10-16T07:14:52;94476.88;;;7.70;100.00
10480;BME280;12789;42.610;23.040;2022-10-16T07:17:21;94485.75;;;7.66;100.00
10480;BME280;12789;42.610;23.040;2022-10-16T07:19:48;94475.34;;;7.68;100.00
10480;BME280;12789;42.610;23.040;2022-10-16T07:22:16;94480.84;;;9.04;100.00
10480;BME280;12789;42.610;23.040;2022-10-16T07:24:43;94481.28;;;8.64;100.00
10480;BME280;12789;42.610;23.040;2022-10-16T07:27:10;94485.78;;;9.07;100.00
10480;BME280;12789;42.610;23.040;2022-10-16T07:29:37;94472.28;;;9.36;100.00
10480;BME280;12789;42.610;23.040;2022-10-16T07:32:04;94474.75;;;9.71;100.00
10480;BME280;12789;42.610;23.040;2022-10-16T07:34:31;94462.84;;;9.90;100.00
10480;BME280;12789;42.610;23.040;2022-10-16T07:36:58;94468.03;;;9.57;100.00
10480;BME280;12789;42.610;23.040;2022-10-16T07:39:26;94470.75;;;10.73;100.00
10480;BME280;12789;42.610;23.040;2022-10-16T07:41:53;94479.00;;;11.19;100.00
10480;BME280;12789;42.610;23.040;2022-10-16T07:44:20;94477.31;;;10.15;100.00
10480;BME280;12789;42.610;23.040;2022-10-16T07:46:47;94475.66;;;11.08;100.00
10480;BME280;12789;42.610;23.040;2022-10-16T07:49:14;94482.34;;;10.58;100.00
10480;BME280;12789;42.610;23.040;2022-10-16T07:51:41;94474.53;;;10.49;100.00
10480;BME280;12789;42.610;23.040;2022-10-16T07:54:08;94462.25;;;10.51;100.00
10480;BME280;12789;42.610;23.040;2022-10-16T07:56:36;94477.59;;;10.74;100.00
10480;BME280;12789;42.610;23.040;2022-10-16T07:59:03;94475.63;;;11.28;100.00
10480;BME280;12789;42.610;23.040;2022-10-16T08:01:30;94468.72;;;11.38;100.00
10480;BME280;12789;42.610;23.040;2022-10-16T08:03:57;94475.31;;;11.63;100.00
10480;BME280;12789;42.610;23.040;2022-10-16T08:06:24;94469.19;;;11.64;100.00
10480;BME280;12789;42.610;23.040;2022-10-16T08:08:51;94493.91;;;12.46;100.00
10480;BME280;12789;42.610;23.040;2022-10-16T08:11:18;94476.25;;;12.40;100.00
10480;BME280;12789;42.610;23.040;2022-10-16T08:13:46;94473.22;;;12.45;100.00
10480;BME280;12789;42.610;23.040;2022-10-16T08:16:13;94471.03;;;12.50;100.00
10480;BME280;12789;42.610;23.040;2022-10-16T08:18:40;94472.75;;;13.17;100.00
10480;BME280;12789;42.610;23.040;2022-10-16T08:21:13;94468.22;;;13.10;100.00
10480;BME280;12789;42.610;23.040;2022-10-16T08:23:40;94483.00;;;13.28;100.00
10480;BME280;12789;42.610;23.040;2022-10-16T08:26:08;94469.75;;;13.03;100.00
10480;BME280;12789;42.610;23.040;2022-10-16T08:28:36;94482.16;;;13.37;100.00
10480;BME280;12789;42.610;23.040;2022-10-16T08:31:10;94468.81;;;13.49;100.00
10480;BME280;12789;42.610;23.040;2022-10-16T08:33:38;94473.19;;;13.58;100.00
10480;BME280;12789;42.610;23.040;2022-10-16T08:36:06;94471.31;;;13.87;100.00
10480;BME280;12789;42.610;23.040;2022-10-16T08:38:33;94470.72;;;14.30;100.00
10480;BME280;12789;42.610;23.040;2022-10-16T08:41:18;94469.47;;;14.34;100.00
10480;BME280;12789;42.610;23.040;2022-10-16T08:44:00;94464.72;;;14.20;100.00
10480;BME280;12789;42.610;23.040;2022-10-16T08:46:41;94457.09;;;14.36;100.00
10480;BME280;12789;42.610;23.040;2022-10-16T08:49:11;94454.38;;;15.07;100.00
10480;BME280;12789;42.610;23.040;2022-10-16T08:51:40;94458.28;;;15.46;100.00
10480;BME280;12789;42.610;23.040;2022-10-16T08:54:18;94441.59;;;15.98;100.00
10480;BME280;12789;42.610;23.040;2022-10-16T08:56:47;94451.91;;;15.48;100.00
10480;BME280;12789;42.610;23.040;2022-10-16T08:59:16;94435.63;;;16.21;100.00
10480;BME280;12789;42.610;23.040;2022-10-16T09:01:47;94455.34;;;17.06;100.00
10480;BME280;12789;42.610;23.040;2022-10-16T09:04:39;94459.25;;;15.45;100.00
10480;BME280;12789;42.610;23.040;2022-10-16T09:07:18;94439.84;;;15.73;100.00
10480;BME280;12789;42.610;23.040;2022-10-16T09:10:06;94453.38;;;16.02;100.00
10480;BME280;12789;42.610;23.040;2022-10-16T09:12:39;94447.38;;;16.09;100.00
10480;BME280;12789;42.610;23.040;2022-10-16T09:15:20;94449.44;;;16.96;100.00
10480;BME280;12789;42.610;23.040;2022-10-16T09:17:55;94450.47;;;17.35;100.00
10480;BME280;12789;42.610;23.040;2022-10-16T09:20:30;94446.50;;;17.07;88.87
10480;BME280;12789;42.610;23.040;2022-10-16T09:23:13;94445.84;;;17.13;85.70
10480;BME280;12789;42.610;23.040;2022-10-16T09:25:44;94436.44;;;17.91;86.03
10480;BME280;12789;42.610;23.040;2022-10-16T09:28:13;94441.63;;;17.36;84.04
10480;BME280;12789;42.610;23.040;2022-10-16T09:30:40;94440.97;;;16.37;85.48
10480;BME280;12789;42.610;23.040;2022-10-16T09:33:09;94418.63;;;16.58;82.91
10480;BME280;12789;42.610;23.040;2022-10-16T09:35:38;94442.22;;;16.90;83.27
10480;BME280;12789;42.610;23.040;2022-10-16T09:38:06;94422.28;;;17.37;82.56
10480;BME280;12789;42.610;23.040;2022-10-16T09:40:36;94432.94;;;18.14;80.07
10480;BME280;12789;42.610;23.040;2022-10-16T09:43:15;94426.78;;;18.90;78.33
10480;BME280;12789;42.610;23.040;2022-10-16T09:45:53;94424.75;;;18.78;77.31
10480;BME280;12789;42.610;23.040;2022-10-16T09:48:22;94406.50;;;19.80;71.54
10480;BME280;12789;42.610;23.040;2022-10-16T09:50:56;94385.03;;;19.55;72.11
10480;BME280;12789;42.610;23.040;2022-10-16T09:53:23;94398.31;;;19.02;70.17
10480;BME280;12789;42.610;23.040;2022-10-16T09:55:52;94407.84;;;18.11;72.08
10480;BME280;12789;42.610;23.040;2022-10-16T09:58:21;94396.47;;;19.47;69.16
10480;BME280;12789;42.610;23.040;2022-10-16T10:00:49;94391.06;;;19.26;69.81
10480;BME280;12789;42.610;23.040;2022-10-16T10:03:33;94386.97;;;18.79;65.84
10480;BME280;12789;42.610;23.040;2022-10-16T10:06:13;94370.72;;;20.29;64.68
10480;BME280;12789;42.610;23.040;2022-10-16T10:08:53;94379.31;;;20.02;63.68
10480;BME280;12789;42.610;23.040;2022-10-16T10:11:43;94373.38;;;20.29;61.19
10480;BME280;12789;42.610;23.040;2022-10-16T10:14:36;94368.34;;;20.84;61.30
10480;BME280;12789;42.610;23.040;2022-10-16T10:17:16;94368.22;;;20.21;56.88
10480;BME280;12789;42.610;23.040;2022-10-16T10:19:50;94375.13;;;19.28;55.33
10480;BME280;12789;42.610;23.040;2022-10-16T10:22:30;94365.47;;;21.00;58.50
10480;BME280;12789;42.610;23.040;2022-10-16T10:25:10;94359.00;;;20.46;54.90
10480;BME280;12789;42.610;23.040;2022-10-16T10:27:47;94363.16;;;20.05;54.64
10480;BME280;12789;42.610;23.040;2022-10-16T10:30:22;94354.53;;;21.03;56.32
10480;BME280;12789;42.610;23.040;2022-10-16T10:32:59;94336.00;;;22.00;53.31
10480;BME280;12789;42.610;23.040;2022-10-16T10:35:33;94339.94;;;22.17;53.68
10480;BME280;12789;42.610;23.040;2022-10-16T10:38:12;94325.72;;;22.18;51.35
10480;BME280;12789;42.610;23.040;2022-10-16T10:40:50;94333.75;;;21.42;53.81
10480;BME280;12789;42.610;23.040;2022-10-16T10:43:28;94319.50;;;21.36;50.66
10480;BME280;12789;42.610;23.040;2022-10-16T10:46:01;94340.63;;;20.53;53.84
10480;BME280;12789;42.610;23.040;2022-10-16T10:48:48;94316.00;;;22.84;51.02
10480;BME280;12789;42.610;23.040;2022-10-16T10:51:24;94314.59;;;23.14;49.59
10480;BME280;12789;42.610;23.040;2022-10-16T10:54:01;94308.75;;;24.21;49.08
10480;BME280;12789;42.610;23.040;2022-10-16T10:56:43;94319.81;;;24.05;48.57
10480;BME280;12789;42.610;23.040;2022-10-16T11:02:31;94309.28;;;23.01;46.89
10480;BME280;12789;42.610;23.040;2022-10-16T11:08:13;94315.69;;;22.41;44.83
10480;BME280;12789;42.610;23.040;2022-10-16T11:10:48;94311.72;;;21.22;46.77
10480;BME280;12789;42.610;23.040;2022-10-16T11:13:26;94303.66;;;21.30;46.79
10480;BME280;12789;42.610;23.040;2022-10-16T11:15:59;94313.59;;;23.41;45.07
10480;BME280;12789;42.610;23.040;2022-10-16T11:18:32;94296.25;;;24.34;44.83
10480;BME280;12789;42.610;23.040;2022-10-16T11:21:04;94295.56;;;24.15;43.57
10480;BME280;12789;42.610;23.040;2022-10-16T11:23:40;94304.50;;;22.39;45.17
10480;BME280;12789;42.610;23.040;2022-10-16T11:26:14;94297.66;;;23.80;44.31
10480;BME280;12789;42.610;23.040;2022-10-16T11:28:45;94298.13;;;24.28;41.62
10480;BME280;12789;42.610;23.040;2022-10-16T11:31:17;94290.31;;;25.14;42.67
10480;BME280;12789;42.610;23.040;2022-10-16T11:33:49;94286.22;;;25.85;38.11
10480;BME280;12789;42.610;23.040;2022-10-16T11:36:22;94288.78;;;25.73;38.58
10480;BME280;12789;42.610;23.040;2022-10-16T11:38:58;94289.38;;;23.31;40.04
10480;BME280;12789;42.610;23.040;2022-10-16T11:41:29;94293.56;;;22.68;40.08
10480;BME280;12789;42.610;23.040;2022-10-16T11:44:34;94298.22;;;24.08;40.88
10480;BME280;12789;42.610;23.040;2022-10-16T11:47:11;94296.59;;;24.01;40.69
10480;BME280;12789;42.610;23.040;2022-10-16T11:49:42;94292.84;;;25.02;37.16
10480;BME280;12789;42.610;23.040;2022-10-16T11:52:17;94272.44;;;22.87;40.46
10480;BME280;12789;42.610;23.040;2022-10-16T11:54:52;94302.78;;;23.62;39.19
10480;BME280;12789;42.610;23.040;2022-10-16T11:57:23;94293.22;;;24.31;36.44
10480;BME280;12789;42.610;23.040;2022-10-16T11:59:55;94283.53;;;24.56;36.94
10480;BME280;12789;42.610;23.040;2022-10-16T12:02:35;94279.00;;;25.49;36.36
10480;BME280;12789;42.610;23.040;2022-10-16T12:05:15;94281.69;;;25.25;37.40
10480;BME280;12789;42.610;23.040;2022-10-16T12:07:51;94282.66;;;25.55;36.57
10480;BME280;12789;42.610;23.040;2022-10-16T12:10:24;94272.94;;;24.56;35.13
10480;BME280;12789;42.610;23.040;2022-10-16T12:12:51;94276.78;;;25.46;34.98
10480;BME280;12789;42.610;23.040;2022-10-16T12:15:22;94273.56;;;24.51;35.32
10480;BME280;12789;42.610;23.040;2022-10-16T12:17:50;94281.13;;;23.91;36.32
10480;BME280;12789;42.610;23.040;2022-10-16T12:20:24;94271.28;;;24.61;36.41
10480;BME280;12789;42.610;23.040;2022-10-16T12:22:54;94269.13;;;26.34;34.54
10480;BME280;12789;42.610;23.040;2022-10-16T12:25:26;94274.31;;;24.65;35.98
10480;BME280;12789;42.610;23.040;2022-10-16T12:28:02;94283.47;;;24.25;36.21
10480;BME280;12789;42.610;23.040;2022-10-16T12:30:31;94272.09;;;24.93;34.88
10480;BME280;12789;42.610;23.040;2022-10-16T12:33:01;94284.19;;;24.45;34.58
10480;BME280;12789;42.610;23.040;2022-10-16T12:35:31;94271.34;;;25.59;35.15
10480;BME280;12789;42.610;23.040;2022-10-16T12:38:15;94265.84;;;25.79;34.25
10480;BME280;12789;42.610;23.040;2022-10-16T12:40:46;94279.03;;;25.25;33.68
10480;BME280;12789;42.610;23.040;2022-10-16T12:43:35;94278.75;;;24.71;33.89
10480;BME280;12789;42.610;23.040;2022-10-16T12:46:05;94268.13;;;25.02;35.07
10480;BME280;12789;42.610;23.040;2022-10-16T12:48:33;94265.53;;;25.69;33.69
10480;BME280;12789;42.610;23.040;2022-10-16T12:51:10;94270.03;;;25.26;35.22
10480;BME280;12789;42.610;23.040;2022-10-16T12:53:37;94278.66;;;25.64;35.00
10480;BME280;12789;42.610;23.040;2022-10-16T12:56:13;94278.00;;;25.93;34.75
10480;BME280;12789;42.610;23.040;2022-10-16T12:58:52;94275.16;;;26.23;33.83
10480;BME280;12789;42.610;23.040;2022-10-16T13:01:32;94276.50;;;26.32;33.45
10480;BME280;12789;42.610;23.040;2022-10-16T13:04:23;94267.66;;;26.02;33.04
10480;BME280;12789;42.610;23.040;2022-10-16T13:07:03;94288.00;;;24.62;34.74
10480;BME280;12789;42.610;23.040;2022-10-16T13:09:46;94300.56;;;23.59;37.18
10480;BME280;12789;42.610;23.040;2022-10-16T13:12:33;94279.28;;;24.55;36.01